deformed-offering
Saratoga-Weather Station Historical Data
 
Daily Summary for January 20, 2022 Units:  English    Metric   Both
Daily Weekly Monthly Yearly
  Current: High: Low: Average:
Temperature: 40.2 °F 43.9 °F 40.2 °F 42 °F
Dew Point: 38.6 °F 41.1 °F 38.6 °F 39.9 °F
Humidity: 94% 94% 89.8% 92%
Wind Speed: 0.7mph 0.9mph 0mph 0.1mph
Wind Gust: 2.3mph 2.3mph - -
WindWest - - West
Pressure: 30.29 in 30.29 in 30.26 in -
Precipitation: 0.00 in      
 
 
Tabular Data for January 20, 2022
Time Temperature Dew Point Pressure Wind Wind Speed Wind Gust Humidity Rainfall Rate (Hourly) solar
00:04 43.9 °F 41.1 °F 30.27 in West 0.1 mph 2 mph 89.8% 0.00 in 0 W/m2
00:09 43.8 °F 41.1 °F 30.27 in West 0.9 mph 2.3 mph 90% 0.00 in 0 W/m2
00:14 43.8 °F 41.1 °F 30.27 in West 0.6 mph 2.3 mph 90% 0.00 in 0 W/m2
00:19 43.7 °F 41 °F 30.27 in West 0.2 mph 2.3 mph 90% 0.00 in 0 W/m2
00:24 43.6 °F 41 °F 30.27 in West 0.1 mph 2.3 mph 90.3% 0.00 in 0 W/m2
00:29 43.6 °F 41.1 °F 30.27 in Calm   2 mph 90.8% 0.00 in 0 W/m2
00:34 43.6 °F 41.1 °F 30.27 in Calm     91% 0.00 in 0 W/m2
00:39 43.6 °F 41.1 °F 30.26 in Calm     91% 0.00 in 0 W/m2
00:44 43.5 °F 41 °F 30.26 in Calm     91% 0.00 in 0 W/m2
00:49 43.5 °F 41 °F 30.26 in Calm     91% 0.00 in 0 W/m2
00:54 43.4 °F 40.9 °F 30.26 in Calm     91% 0.00 in 0 W/m2
00:59 43.3 °F 40.8 °F 30.26 in Calm     91% 0.00 in 0 W/m2
01:04 43.3 °F 40.8 °F 30.26 in Calm     91% 0.00 in 0 W/m2
01:09 43.3 °F 40.8 °F 30.27 in Calm     91% 0.00 in 0 W/m2
01:14 43.2 °F 40.8 °F 30.27 in West 0.3 mph 2.3 mph 91% 0.00 in 0 W/m2
01:19 43.2 °F 40.8 °F 30.27 in West 0.6 mph 2.3 mph 91% 0.00 in 0 W/m2
01:24 43.2 °F 40.8 °F 30.27 in Calm   2 mph 91% 0.00 in 0 W/m2
01:29 43.1 °F 40.7 °F 30.28 in Calm     91% 0.00 in 0 W/m2
01:34 43.1 °F 40.7 °F 30.28 in Calm     91% 0.00 in 0 W/m2
01:39 42.9 °F 40.5 °F 30.28 in Calm     91% 0.00 in 0 W/m2
01:44 42.9 °F 40.5 °F 30.28 in Calm     91% 0.00 in 0 W/m2
01:49 42.9 °F 40.6 °F 30.28 in Calm     91.3% 0.00 in 0 W/m2
01:54 42.9 °F 40.7 °F 30.28 in Calm     91.8% 0.00 in 0 W/m2
01:59 42.9 °F 40.7 °F 30.28 in Calm     92% 0.00 in 0 W/m2
02:04 42.8 °F 40.6 °F 30.28 in Calm     92% 0.00 in 0 W/m2
02:09 42.8 °F 40.6 °F 30.28 in Calm     92% 0.00 in 0 W/m2
02:14 42.7 °F 40.5 °F 30.28 in Calm     92% 0.00 in 0 W/m2
02:19 42.6 °F 40.4 °F 30.28 in Calm     92% 0.00 in 0 W/m2
02:24 42.6 °F 40.4 °F 30.28 in Calm     92% 0.00 in 0 W/m2
02:29 42.5 °F 40.3 °F 30.28 in Calm     92% 0.00 in 0 W/m2
02:34 42.5 °F 40.3 °F 30.28 in Calm     92% 0.00 in 0 W/m2
02:39 42.5 °F 40.3 °F 30.28 in Calm     92% 0.00 in 0 W/m2
02:44 42.5 °F 40.3 °F 30.28 in Calm     92% 0.00 in 0 W/m2
02:49 42.5 °F 40.3 °F 30.28 in Calm     92% 0.00 in 0 W/m2
02:54 42.5 °F 40.3 °F 30.28 in Calm     92% 0.00 in 0 W/m2
02:59 42.3 °F 40.1 °F 30.28 in Calm     92% 0.00 in 0 W/m2
03:04 42.3 °F 40.1 °F 30.28 in Calm     92% 0.00 in 0 W/m2
03:09 42.2 °F 40 °F 30.28 in Calm     92% 0.00 in 0 W/m2
03:14 42.1 °F 39.9 °F 30.28 in West 0.2 mph 2.3 mph 92% 0.00 in 0 W/m2
03:19 42 °F 39.8 °F 30.28 in West 0.4 mph 2.3 mph 92% 0.00 in 0 W/m2
03:24 41.9 °F 39.7 °F 30.28 in Calm   2 mph 92% 0.00 in 0 W/m2
03:29 41.9 °F 39.7 °F 30.27 in Calm     92% 0.00 in 0 W/m2
03:34 41.8 °F 39.8 °F 30.27 in Calm     92.6% 0.00 in 0 W/m2
03:39 41.8 °F 39.6 °F 30.27 in Calm     92% 0.00 in 0 W/m2
03:44 41.6 °F 39.6 °F 30.27 in Calm     92.5% 0.00 in 0 W/m2
03:49 41.6 °F 39.7 °F 30.27 in Calm     93% 0.00 in 0 W/m2
03:54 41.6 °F 39.7 °F 30.27 in Calm     93% 0.00 in 0 W/m2
03:59 41.5 °F 39.6 °F 30.27 in Calm     93% 0.00 in 0 W/m2
04:04 41.4 °F 39.5 °F 30.27 in Calm     93% 0.00 in 0 W/m2
04:09 41.3 °F 39.4 °F 30.27 in Calm     93% 0.00 in 0 W/m2
04:14 41.2 °F 39.3 °F 30.27 in Calm     93% 0.00 in 0 W/m2
04:19 41.2 °F 39.3 °F 30.28 in Calm     93% 0.00 in 0 W/m2
04:24 41.1 °F 39.2 °F 30.28 in Calm     93% 0.00 in 0 W/m2
04:29 41.1 °F 39.2 °F 30.28 in Calm     93% 0.00 in 0 W/m2
04:34 41 °F 39.1 °F 30.28 in Calm     93% 0.00 in 0 W/m2
04:39 40.9 °F 39 °F 30.28 in Calm     93% 0.00 in 0 W/m2
04:44 40.8 °F 38.9 °F 30.28 in Calm     93% 0.00 in 0 W/m2
04:49 40.8 °F 38.9 °F 30.28 in Calm     93% 0.00 in 0 W/m2
04:54 40.6 °F 38.7 °F 30.28 in West 0.3 mph 2.3 mph 93% 0.00 in 0 W/m2
04:59 40.6 °F 38.7 °F 30.29 in West 0.1 mph 2 mph 93% 0.00 in 0 W/m2
05:04 40.6 °F 38.7 °F 30.29 in West 0.1 mph 2 mph 93% 0.00 in 0 W/m2
05:09 40.6 °F 38.7 °F 30.29 in West 0.2 mph 2.3 mph 93% 0.00 in 0 W/m2
05:14 40.6 °F 38.7 °F 30.29 in Calm   1 mph 93% 0.00 in 0 W/m2
05:19 40.6 °F 38.8 °F 30.29 in West 0.2 mph 1.2 mph 93.3% 0.00 in 0 W/m2
05:24 40.5 °F 38.9 °F 30.29 in West 0.5 mph 2.3 mph 94% 0.00 in 0 W/m2
05:29 40.5 °F 38.9 °F 30.29 in West 0.1 mph 2.3 mph 94% 0.00 in 0 W/m2
05:34 40.5 °F 38.9 °F 30.29 in Calm     94% 0.00 in 0 W/m2
05:39 40.5 °F 38.9 °F 30.29 in Calm     94% 0.00 in 0 W/m2
05:44 40.3 °F 38.7 °F 30.29 in Calm     94% 0.00 in 0 W/m2
05:49 40.3 °F 38.7 °F 30.29 in Calm     94% 0.00 in 0 W/m2
05:54 40.2 °F 38.6 °F 30.29 in Calm     94% 0.00 in 0 W/m2
05:59 40.2 °F 38.6 °F 30.29 in West 0.1 mph 2 mph 94% 0.00 in 0 W/m2
06:04 40.2 °F 38.6 °F 30.29 in West 0.7 mph 2.3 mph 94% 0.00 in 0 W/m2
06:09 40.2 °F 38.6 °F 30.29 in West 0.7 mph 2.3 mph 94% 0.00 in 0 W/m2
Saratoga, California, USA
Compliments of Weather Underground - 2 mb

WU-history PHP script courtesy of Juneau County Weather and modified for WU/TWC API use by Saratoga-weather.org

This script set is available on GitHub.

deformed-offering